Stations météo

Publicité
Cholet, France (7233): Température de l'air & dewpoint: 18.01.2021 07:00:00 - 24.01.2021 07:00:00 (CET)Cholet, France (7233): Vitesse du vent & gusts: 18.01.2021 07:00:00 - 24.01.2021 07:00:00 (CET)Cholet, France (7233): Direction du vent: 18.01.2021 07:00:00 - 24.01.2021 07:00:00 (CET)Cholet, France (7233): reduced air pressure: 18.01.2021 07:00:00 - 24.01.2021 07:00:00 (CET)Cholet, France (7233): Quantités de précipitations: 18.01.2021 07:00:00 - 24.01.2021 07:00:00 (CET)
Date & Time tt [°C] td [°C] ff [km/h] ff [knt] fx [km/h] fx [knt] dd ppp [hPa] rr [mm]
24.01.2021 07:00:00 - - - - - - - - -
24.01.2021 06:00:00 -0,7 -1,1 8 5 11 6 S 1004,7 0,0
24.01.2021 05:00:00 -0,6 -1,0 5 3 8 5 S 1004,5 0,0
24.01.2021 04:00:00 0,0 -0,3 5 3 7 4 S 1004,3 0,0
24.01.2021 03:00:00 -0,1 -0,4 5 3 6 4 S 1004,1 0,0
24.01.2021 02:00:00 0,3 0,0 2 1 6 4 SW 1003,8 0,0
24.01.2021 01:00:00 0,1 -0,5 4 2 4 2 SSW 1003,3 0,0
24.01.2021 00:00:00 0,5 -0,5 0 0 3 1 N 1002,6 0,0
23.01.2021 23:00:00 1,9 0,4 2 1 3 1 WNW 1002,2 0,0
23.01.2021 22:00:00 1,8 0,6 0 0 5 3 N 1001,8 0,0
23.01.2021 21:00:00 1,9 0,6 0 0 9 5 N 1001,4 0,0
23.01.2021 20:00:00 2,4 0,5 2 1 5 3 NNW 1001,2 0,0
23.01.2021 19:00:00 3,4 0,6 4 2 11 6 N 1000,4 0,0
23.01.2021 18:00:00 4,1 1,1 6 3 16 9 N 999,7 0,0
23.01.2021 17:00:00 5,5 1,2 16 9 32 17 NNW 999,6 0,0
23.01.2021 16:00:00 6,0 1,9 13 7 39 21 NW 999,2 0,0
23.01.2021 15:00:00 6,0 2,5 20 11 45 25 NW 997,7 0,0
23.01.2021 14:00:00 6,8 3,4 19 10 43 23 WNW 996,3 0,0
23.01.2021 13:00:00 6,2 2,8 23 12 48 26 WNW 995,3 0,0
23.01.2021 12:00:00 7,2 4,2 24 13 44 24 W 993,5 0,0
23.01.2021 11:00:00 7,0 5,3 20 11 41 22 WSW 992,5 0,2
23.01.2021 10:00:00 4,9 3,2 19 10 35 19 SSW 992,7 0,4
23.01.2021 09:00:00 3,4 2,1 12 6 46 25 SW 994,4 1,6
23.01.2021 08:00:00 5,9 3,9 19 11 49 26 SW 994,4 0,2
23.01.2021 07:00:00 6,1 5,1 20 11 39 21 SSW 995,1 0,0
23.01.2021 06:00:00 5,7 4,7 26 14 42 23 S 995,7 0,0
23.01.2021 05:00:00 5,8 4,9 19 10 32 17 S 997,1 0,2
23.01.2021 04:00:00 5,6 4,4 22 12 36 19 S 998,8 1,8
23.01.2021 03:00:00 4,8 3,5 12 6 27 14 S 1000,2 0,0
23.01.2021 02:00:00 3,8 2,9 10 6 16 9 SSW 1001,5 0,0
23.01.2021 01:00:00 3,5 2,8 10 5 16 9 SSW 1002,8 0,0
23.01.2021 00:00:00 3,4 2,7 9 5 16 9 SW 1003,2 0,0
22.01.2021 23:00:00 3,8 3,1 9 5 19 11 SW 1003,2 0,0
22.01.2021 22:00:00 4,2 3,2 10 5 19 11 SW 1002,9 0,0
22.01.2021 21:00:00 5,0 3,7 13 7 28 15 SW 1002,7 0,0
22.01.2021 20:00:00 5,2 3,5 11 6 31 17 SW 1002,8 0,0
22.01.2021 19:00:00 5,7 3,0 10 5 18 10 SSW 1002,2 0,0
22.01.2021 18:00:00 6,2 3,2 10 5 31 17 WSW 1001,8 0,0
22.01.2021 17:00:00 8,1 3,2 10 6 29 16 WSW 1001,3 0,0
22.01.2021 16:00:00 8,6 1,9 18 10 37 20 W 1000,8 0,0
22.01.2021 15:00:00 8,8 3,0 14 8 34 18 W 1000,0 0,0
22.01.2021 14:00:00 8,8 3,2 17 9 27 15 W 999,8 0,0
22.01.2021 13:00:00 7,6 4,0 9 5 19 11 WNW 999,8 0,0
22.01.2021 12:00:00 5,5 3,7 9 5 17 9 W 999,6 0,0
22.01.2021 11:00:00 4,4 3,8 8 4 15 8 WNW 998,6 0,0
22.01.2021 10:00:00 4,0 3,6 5 3 13 7 NW 997,2 0,0
22.01.2021 09:00:00 3,9 3,5 6 3 15 8 N 995,7 0,0
22.01.2021 08:00:00 4,3 3,9 9 5 17 9 NNE 994,1 0,0
22.01.2021 07:00:00 4,3 3,9 10 6 24 13 N 993,9 0,0
22.01.2021 06:00:00 4,4 4,0 16 9 27 15 NNE 993,4 0,0
22.01.2021 05:00:00 5,2 4,9 12 7 27 15 N 992,7 0,8
22.01.2021 04:00:00 5,8 5,5 17 9 29 16 N 991,8 5,2
22.01.2021 03:00:00 6,7 6,4 10 5 14 7 NNE 991,3 2,4
22.01.2021 02:00:00 6,5 6,1 4 2 18 10 N 991,4 4,8
22.01.2021 01:00:00 7,3 6,7 9 5 18 10 NW 992,1 5,2
22.01.2021 00:00:00 9,0 8,7 5 3 26 14 WSW 992,4 2,2
21.01.2021 23:00:00 9,0 8,5 15 8 36 20 SW 992,7 0,4
21.01.2021 22:00:00 8,8 7,9 18 10 48 26 SW 992,6 1,2
21.01.2021 21:00:00 9,8 8,4 26 14 65 35 SW 992,2 2,2
21.01.2021 20:00:00 9,6 8,0 27 15 68 37 SW 991,8 0,8
21.01.2021 19:00:00 9,9 6,6 36 20 66 36 SSW 991,7 0,0
21.01.2021 18:00:00 10,5 7,7 36 19 64 35 SSW 991,5 0,0
21.01.2021 17:00:00 10,5 7,9 35 19 76 41 SW 991,7 2,2
21.01.2021 16:00:00 10,5 8,8 43 23 92 50 SSW 991,4 3,2
21.01.2021 15:00:00 10,1 9,0 38 21 78 42 S 992,2 1,2
21.01.2021 14:00:00 9,7 8,3 43 23 78 42 SSW 993,9 2,8
21.01.2021 13:00:00 9,5 8,6 33 18 66 35 S 995,5 1,8
21.01.2021 12:00:00 9,0 7,9 24 13 38 20 S 997,3 0,6
21.01.2021 11:00:00 8,8 7,2 22 12 34 19 S 998,5 0,0
21.01.2021 10:00:00 8,0 6,3 17 9 30 16 S 999,4 0,0
21.01.2021 09:00:00 7,6 6,2 16 8 31 17 S 999,8 0,0
21.01.2021 08:00:00 7,3 5,6 13 7 27 15 SSW 1000,0 0,0
21.01.2021 07:00:00 7,7 6,0 17 9 27 14 SSW 999,7 0,0
21.01.2021 06:00:00 7,3 6,2 11 6 24 13 SW 999,3 0,0
21.01.2021 05:00:00 7,3 6,7 11 6 21 11 SW 998,6 0,0
21.01.2021 04:00:00 7,6 6,7 11 6 33 18 WSW 997,8 0,0
21.01.2021 03:00:00 8,3 7,4 21 11 54 29 W 996,7 1,2
21.01.2021 02:00:00 10,9 10,3 26 14 59 32 SW 993,9 0,6
21.01.2021 01:00:00 11,0 10,1 30 16 63 34 SSW 993,5 0,2
21.01.2021 00:00:00 11,3 9,6 35 19 74 40 SSW 993,2 0,2
20.01.2021 23:00:00 11,1 10,0 37 20 66 36 SSW 992,7 1,6
20.01.2021 22:00:00 10,5 9,4 35 19 68 37 SSW 992,2 0,8
20.01.2021 21:00:00 10,3 8,6 42 23 65 35 S 992,1 0,6
20.01.2021 20:00:00 9,9 7,0 38 21 79 43 S 992,7 0,4
20.01.2021 19:00:00 9,9 6,8 39 21 61 33 S 993,0 0,0
20.01.2021 18:00:00 10,4 5,0 37 20 64 35 S 993,9 0,0
20.01.2021 17:00:00 10,7 4,6 36 19 59 32 S 994,0 0,0
20.01.2021 16:00:00 10,3 4,2 30 16 56 31 S 994,9 0,0
20.01.2021 15:00:00 10,1 3,6 35 19 72 39 S 995,5 0,0
20.01.2021 14:00:00 9,8 3,7 38 20 56 31 S 996,8 0,0
20.01.2021 13:00:00 9,0 3,6 31 17 58 32 S 998,1 0,0
20.01.2021 12:00:00 8,6 2,8 28 15 58 32 S 999,3 0,0
20.01.2021 11:00:00 8,8 3,0 31 17 56 30 S 999,7 0,0
20.01.2021 10:00:00 7,3 2,4 24 13 41 22 S 1000,2 0,0
20.01.2021 09:00:00 7,3 2,2 25 14 42 23 S 1001,1 0,0
20.01.2021 08:00:00 7,1 2,2 23 12 42 23 S 1001,7 0,0
20.01.2021 07:00:00 7,1 2,6 21 11 38 20 SSE 1002,5 0,0
20.01.2021 06:00:00 7,3 2,8 19 11 39 21 S 1003,5 0,0
20.01.2021 05:00:00 7,6 3,4 22 12 39 21 S 1003,7 0,0
20.01.2021 04:00:00 7,7 3,4 19 11 34 18 S 1004,9 0,0
20.01.2021 03:00:00 7,9 3,7 18 10 33 18 S 1005,9 0,0
20.01.2021 02:00:00 8,1 3,9 16 9 32 17 S 1006,8 0,0
20.01.2021 01:00:00 7,7 3,7 14 8 30 16 S 1007,9 0,0
20.01.2021 00:00:00 8,0 3,8 17 9 32 18 SSW 1008,9 0,0
19.01.2021 23:00:00 7,2 4,3 18 10 31 17 S 1009,4 0,0
19.01.2021 22:00:00 7,2 4,8 17 9 26 14 S 1010,1 0,0
19.01.2021 21:00:00 6,6 4,8 14 8 23 13 S 1011,1 0,0
19.01.2021 20:00:00 6,7 5,0 15 8 31 17 S 1012,1 0,0
19.01.2021 19:00:00 7,0 5,6 16 9 34 18 S 1012,7 0,0
19.01.2021 18:00:00 7,1 6,0 23 13 37 20 S 1013,4 0,0
19.01.2021 17:00:00 6,9 6,3 21 12 35 19 S 1014,0 0,0
19.01.2021 16:00:00 6,6 6,0 20 11 32 17 S 1014,7 0,0
19.01.2021 15:00:00 6,3 5,9 19 11 32 17 S 1015,1 0,0
19.01.2021 14:00:00 5,9 5,6 14 8 23 13 S 1016,4 0,0
19.01.2021 13:00:00 5,0 4,6 19 10 30 16 S 1017,2 0,0
19.01.2021 12:00:00 4,2 3,8 22 12 33 18 S 1018,5 0,0
19.01.2021 11:00:00 3,7 2,7 23 12 34 18 S 1019,1 0,0
19.01.2021 10:00:00 3,0 1,0 11 6 29 16 SSW 1019,8 0,0
19.01.2021 09:00:00 2,5 0,6 20 11 34 18 S 1019,5 0,0
19.01.2021 08:00:00 2,3 0,5 19 10 33 18 S 1020,3 0,0
19.01.2021 07:00:00 2,5 0,7 19 10 28 15 S 1020,6 0,0
19.01.2021 06:00:00 3,6 1,0 21 11 32 17 SSW 1020,9 0,0
19.01.2021 05:00:00 3,2 0,8 17 9 26 14 SSW 1021,5 0,0
19.01.2021 04:00:00 3,4 1,8 18 10 33 18 S 1022,1 0,0
19.01.2021 03:00:00 4,1 2,1 20 11 28 15 S 1022,6 0,0
19.01.2021 02:00:00 3,9 2,1 17 9 26 14 S 1023,5 0,0
19.01.2021 01:00:00 4,3 2,2 16 9 31 17 SSW 1024,5 0,0
19.01.2021 00:00:00 4,6 3,1 16 9 30 16 S 1025,0 0,0
18.01.2021 23:00:00 4,7 3,4 18 10 30 16 SSW 1025,3 0,0
18.01.2021 22:00:00 4,9 3,4 14 8 23 12 S 1025,9 0,0
18.01.2021 21:00:00 5,6 3,6 11 6 24 13 S 1026,0 0,0
18.01.2021 20:00:00 6,0 3,7 12 6 22 12 SSW 1026,4 0,0
18.01.2021 19:00:00 6,4 3,9 12 7 18 10 S 1026,8 0,0
18.01.2021 18:00:00 6,6 3,9 10 5 22 12 SSW 1026,9 0,0
18.01.2021 17:00:00 6,8 3,8 12 6 23 12 S 1027,1 0,0
18.01.2021 16:00:00 6,9 3,9 14 7 26 14 SSW 1027,5 0,0
18.01.2021 15:00:00 7,0 3,4 15 8 24 13 S 1027,6 0,0
18.01.2021 14:00:00 7,5 3,7 11 6 21 12 SSW 1028,4 0,0
18.01.2021 13:00:00 7,5 4,1 10 6 16 9 S 1029,0 0,0
18.01.2021 12:00:00 5,9 3,7 8 4 14 8 SSW 1029,9 0,0
18.01.2021 11:00:00 4,5 3,2 8 4 14 8 SSW 1030,2 0,0
18.01.2021 10:00:00 2,5 1,8 6 4 12 7 SSW 1030,2 0,0
18.01.2021 09:00:00 1,5 1,1 6 4 10 5 SSW 1030,3 0,0
18.01.2021 08:00:00 0,5 0,2 6 3 9 5 S 1030,0 0,0
18.01.2021 07:00:00 0,9 0,6 6 3 7 4 S 1029,8 0,0

tt = Température de l'air
td = dewpoint
ff = Vitesse du vent
fx = gusts
dd = Direction du vent
ppp = reduced air pressure
rr = Quantités de précipitations

stations d'obs. à proximité